Weather History for KBBD - March, 2014

Change the Weather History Date:

Wednesday, March 5, 2014

  Actual Average (KJCT) Record (KJCT)
Temperature  
Mean Temperature 52 °F -  
Max Temperature 66 °F 65 °F 88 °F (2009)
Min Temperature 39 °F 39 °F 17 °F (2002)
Degree Days  
Heating Degree Days 12    
Growing Degree Days 2 (Base 50)    
Moisture  
Dew Point 37 °F    
Average Humidity 63    
Maximum Humidity 87    
Minimum Humidity 35    
Precipitation  
Precipitation 0.00 in - - ()
Sea Level Pressure  
Sea Level Pressure 29.99 in    
Wind  
Wind Speed 7 mph (ESE)    
Max Wind Speed 16 mph    
Max Gust Speed -    
Visibility 10 miles    
Events      
Averages and records for this station are not official NWS values.
T = Trace of Precipitation, MM = Missing Value Source: NWS Daily Summary

Daily Weather History Graph

Daily Weather History Graph

Search for Another Location

Airport or City:

Trip Planner

Search our weather history database for the weather conditions in past years. The results will help you decide how hot, cold, wet, or windy it might be!

Date:

Astronomy

Mar. 05, 2014 Rise Set
Actual Time 6:59 AM CST 6:38 PM CST
Civil Twilight 6:35 AM CST 7:02 PM CST
Nautical Twilight 6:07 AM CST 7:30 PM CST
Astronomical Twilight 5:39 AM CST 7:58 PM CST
Moon 9:45 AM CST (3/5) 11:27 PM CST (3/5)
Length of Visible Light 12h 27m
Length of Day
11h 39m
Waxing Crescent, 23% of the Moon is Illuminated
Mar 5
Waxing Crescent
Mar 8
First Quarter
Mar 16
Full
Mar 23
Last Quarter
Mar 30
New

Hourly Weather History & Observations

Time (CST) Temp. Windchill Dew Point Humidity Pressure Visibility Wind Dir Wind Speed Gust Speed Precip Events Conditions
12:35 AM 41.0 °F 36.4 °F 35.6 °F 81% 29.94 in 10.0 mi ESE 6.9 mph - N/A   Clear
12:55 AM 42.8 °F 38.6 °F 35.6 °F 76% 29.94 in 10.0 mi SE 6.9 mph - N/A   Clear
1:15 AM 42.8 °F 39.3 °F 35.6 °F 76% 29.94 in 10.0 mi SE 5.8 mph - N/A   Clear
1:35 AM 41.0 °F 39.0 °F 35.6 °F 81% 29.94 in 10.0 mi SSE 3.5 mph - N/A   Clear
1:55 AM 41.0 °F 38.0 °F 35.6 °F 81% 29.94 in 10.0 mi SE 4.6 mph - N/A   Clear
2:15 AM 41.0 °F 37.1 °F 35.6 °F 81% 29.94 in 10.0 mi SSE 5.8 mph - N/A   Clear
2:35 AM 41.0 °F 38.0 °F 33.8 °F 76% 29.94 in 10.0 mi South 4.6 mph - N/A   Clear
2:55 AM 39.2 °F - 33.8 °F 81% 29.95 in 10.0 mi Calm Calm - N/A   Clear
3:15 AM 39.2 °F 34.2 °F 33.8 °F 81% 29.94 in 10.0 mi South 6.9 mph - N/A   Clear
3:35 AM 39.2 °F 35.9 °F 33.8 °F 81% 29.93 in 10.0 mi South 4.6 mph - N/A   Clear
3:55 AM 39.2 °F 34.2 °F 33.8 °F 81% 29.92 in 10.0 mi SSE 6.9 mph - N/A   Clear
4:15 AM 39.2 °F 35.0 °F 33.8 °F 81% 29.91 in 10.0 mi SSE 5.8 mph - N/A   Clear
4:35 AM 39.2 °F 35.9 °F 33.8 °F 81% 29.91 in 10.0 mi SE 4.6 mph - N/A   Clear
4:55 AM 39.2 °F 33.6 °F 33.8 °F 81% 29.91 in 10.0 mi SSE 8.1 mph - N/A   Clear
5:15 AM 39.2 °F 35.0 °F 33.8 °F 81% 29.91 in 10.0 mi South 5.8 mph - N/A   Clear
5:35 AM 41.0 °F 36.4 °F 33.8 °F 76% 29.91 in 10.0 mi SSE 6.9 mph - N/A   Clear
5:55 AM 41.0 °F 36.4 °F 35.6 °F 81% 29.91 in 10.0 mi South 6.9 mph - N/A   Clear
6:15 AM 41.0 °F 35.8 °F 35.6 °F 81% 29.92 in 10.0 mi South 8.1 mph - N/A   Clear
6:35 AM 41.0 °F 38.0 °F 35.6 °F 81% 29.93 in 10.0 mi South 4.6 mph - N/A   Clear
6:55 AM 41.0 °F 35.8 °F 37.4 °F 87% 29.94 in 10.0 mi South 8.1 mph - N/A   Clear
7:15 AM 39.2 °F 37.0 °F 35.6 °F 87% 29.94 in 10.0 mi South 3.5 mph - N/A   Clear
7:35 AM 41.0 °F 39.0 °F 37.4 °F 87% 29.94 in 10.0 mi SSE 3.5 mph - N/A   Clear
7:50 AM 41.0 °F 39.0 °F 37.4 °F 87% 29.95 in 10.0 mi South 3.5 mph - N/A   Clear
8:15 AM 42.8 °F 38.6 °F 37.4 °F 81% 29.94 in 10.0 mi SE 6.9 mph - N/A   Clear
8:35 AM 42.8 °F 38.0 °F 37.4 °F 81% 29.96 in 10.0 mi SSE 8.1 mph - N/A   Clear
8:55 AM 44.6 °F 40.7 °F 37.4 °F 76% 29.97 in 10.0 mi SSE 6.9 mph - N/A   Clear
9:15 AM 46.4 °F 43.5 °F 37.4 °F 71% 29.96 in 10.0 mi SSE 5.8 mph - N/A   Clear
9:35 AM 46.4 °F 42.4 °F 37.4 °F 71% 29.97 in 10.0 mi South 8.1 mph - N/A   Clear
9:55 AM 48.2 °F - 37.4 °F 66% 29.98 in 10.0 mi Variable 4.6 mph - N/A   Clear
10:15 AM 46.4 °F 42.4 °F 37.4 °F 71% 29.98 in 10.0 mi South 8.1 mph - N/A   Clear
10:35 AM 50.0 °F - 37.4 °F 62% 29.96 in 10.0 mi SSE 9.2 mph - N/A   Clear
10:55 AM 51.8 °F - 37.4 °F 58% 29.96 in 10.0 mi SSE 6.9 mph - N/A   Clear
11:15 AM 51.8 °F - 37.4 °F 58% 29.97 in 10.0 mi South 5.8 mph - N/A   Clear
11:30 AM 53.6 °F - 37.4 °F 54% 29.96 in 10.0 mi Variable 5.8 mph - N/A   Clear
11:55 AM 55.4 °F - 37.4 °F 51% 29.96 in 10.0 mi SSE 6.9 mph - N/A   Clear
12:10 PM 57.2 °F - 39.2 °F 51% 29.96 in 10.0 mi SSW 4.6 mph - N/A   Clear
12:35 PM 59.0 °F - 39.2 °F 48% 29.95 in 10.0 mi SW 5.8 mph - N/A   Clear
12:55 PM 60.8 °F - 37.4 °F 42% 29.94 in 10.0 mi South 8.1 mph - N/A   Clear
1:15 PM 60.8 °F - 37.4 °F 42% 29.94 in 10.0 mi Variable 5.8 mph - N/A   Clear
1:35 PM 62.6 °F - 37.4 °F 39% 29.93 in 10.0 mi Calm Calm - N/A   Clear
1:55 PM 62.6 °F - 37.4 °F 39% 29.93 in 10.0 mi West 5.8 mph - N/A   Clear
2:15 PM 62.6 °F - 37.4 °F 39% 29.93 in 10.0 mi Variable 3.5 mph - N/A   Clear
2:35 PM 64.4 °F - 37.4 °F 37% 29.93 in 10.0 mi West 4.6 mph - N/A   Clear
2:55 PM 62.6 °F - 37.4 °F 39% 29.93 in 10.0 mi NNW 4.6 mph - N/A   Clear
3:15 PM 62.6 °F - 37.4 °F 39% 29.93 in 10.0 mi ENE 3.5 mph - N/A   Clear
3:35 PM 64.4 °F - 37.4 °F 37% 29.93 in 10.0 mi NNE 5.8 mph - N/A   Clear
3:55 PM 64.4 °F - 37.4 °F 37% 29.93 in 10.0 mi Variable 4.6 mph - N/A   Scattered Clouds
4:15 PM 66.2 °F - 37.4 °F 35% 29.93 in 10.0 mi NNE 9.2 mph - N/A   Partly Cloudy
4:35 PM 64.4 °F - 39.2 °F 40% 29.94 in 10.0 mi NNE 16.1 mph - N/A   Clear
4:55 PM 62.6 °F - 39.2 °F 42% 29.95 in 10.0 mi NNE 15.0 mph - N/A   Clear
5:15 PM 62.6 °F - 39.2 °F 42% 29.96 in 10.0 mi NNE 12.7 mph - N/A   Clear
5:35 PM 60.8 °F - 39.2 °F 45% 29.97 in 10.0 mi NNE 13.8 mph - N/A   Clear
5:55 PM 59.0 °F - 39.2 °F 48% 29.98 in 10.0 mi NNE 9.2 mph - N/A   Clear
6:15 PM 57.2 °F - 39.2 °F 51% 30.00 in 10.0 mi NNE 10.4 mph - N/A   Clear
6:35 PM 57.2 °F - 37.4 °F 48% 30.02 in 10.0 mi NNE 8.1 mph - N/A   Clear
6:55 PM 55.4 °F - 37.4 °F 51% 30.03 in 10.0 mi NNE 8.1 mph - N/A   Clear
7:15 PM 53.6 °F - 39.2 °F 58% 30.04 in 10.0 mi NE 10.4 mph - N/A   Clear
7:35 PM 51.8 °F - 39.2 °F 62% 30.07 in 10.0 mi NE 9.2 mph - N/A   Clear
7:55 PM 51.8 °F - 39.2 °F 62% 30.08 in 10.0 mi NE 6.9 mph - N/A   Scattered Clouds
8:15 PM 51.8 °F - 39.2 °F 62% 30.09 in 10.0 mi NE 9.2 mph - N/A   Overcast
8:30 PM 50.0 °F - 39.2 °F 66% 30.11 in 10.0 mi NE 9.2 mph - N/A   Mostly Cloudy
8:55 PM 51.8 °F - 39.2 °F 62% 30.13 in 10.0 mi NE 5.8 mph - N/A   Mostly Cloudy
9:15 PM 51.8 °F - 39.2 °F 62% 30.14 in 10.0 mi NNE 3.5 mph - N/A   Overcast
9:35 PM 51.8 °F - 41.0 °F 67% 30.15 in 10.0 mi North 5.8 mph - N/A   Overcast
9:55 PM 51.8 °F - 35.6 °F 54% 30.16 in 10.0 mi NNW 15.0 mph - N/A   Mostly Cloudy
10:15 PM 48.2 °F - 35.6 °F 62% 30.17 in 10.0 mi North 11.5 mph - N/A   Partly Cloudy
10:35 PM 48.2 °F - 35.6 °F 62% 30.17 in 10.0 mi North 8.1 mph - N/A   Clear
10:55 PM 46.4 °F 40.7 °F 35.6 °F 66% 30.18 in 10.0 mi North 12.7 mph - N/A   Clear
11:15 PM 46.4 °F 41.5 °F 35.6 °F 66% 30.19 in 10.0 mi NNW 10.4 mph - N/A   Clear
11:35 PM 46.4 °F 40.4 °F 35.6 °F 66% 30.18 in 10.0 mi NNW 13.8 mph - N/A   Scattered Clouds
11:55 PM 46.4 °F 40.7 °F 35.6 °F 66% 30.18 in 10.0 mi North 12.7 mph - N/A   Partly Cloudy